Darstellungsparameter: Aktuell verwendete Einstellungen:
Skalierung der Graphiken ... ?
xyx+y,   Skalierungsfaktor:      Skalierung: Modus: x, Faktor: 1
Darstellungszeitraum ... ?
Vom - - bis: - -   Zeitraum: 04.06.2020 - 05.06.2020
Min/Max/Avg-Anzeige ... ?
Zeige MMA aktuell
Zeige MMA Monat
Zeige MMA alles
Zeige --A aktuell
Zeige --A Monat
Zeige --A alles
Keine MMA-Anzeige
MMA:
Average (ber die Originaldaten)
MMA-Basis: 04.06.2020 - 05.06.2020
Quicknavigation für Darstellung... ?
Tage:      1T, 2T, 3T, 5T -1T -2T -3T -5T +1T +2T +3T +5T
Wochen: 1W, 2W, 3W -1W -2W -3W +1W +2W +3W
Monate: 1M, 3M, 6M -1M -3M -6M +1M +3M +6M
Jahre:    1J, 3J, 5J, 10J -1J -3J -5J -10J +1J +3J +5J +10J
Nutze für die Darstellung ... ?
Originaldaten oder Mittelwerte auf ...
Stundenbasis Tagesbasis Wochenbasis
Monatsbasis Jahresbasis      Datenbasis: Original-Daten
Darstellen als:
Statistik (Auto) Statistik J:M      Darstellung:
Zur Graphik,    zurück zur Übersicht aller Sensoren.
 
Tabellarische Datenbersicht: ?
 
Sensor: Nr:Datum:Temp:Abs-Feuchte:Windchill:Wind:
Aussen-T/F 1 04-06-2020 00:00:00 17.4 C 11.26 g/m*3 17.4 C 11.3 km/h
2 04-06-2020 00:05:00 17.8 C 11.08 g/m*3 17.8 C 6.4 km/h
3 04-06-2020 00:10:00 18 C 11.06 g/m*3 18 C 4.8 km/h
4 04-06-2020 00:15:00 18.1 C 11.12 g/m*3 18.1 C 9.7 km/h
5 04-06-2020 00:20:00 18.3 C 11.26 g/m*3 18.3 C 9.7 km/h
6 04-06-2020 00:25:00 18.4 C 11.17 g/m*3 18.4 C 6.4 km/h
7 04-06-2020 00:30:00 18.4 C 11.17 g/m*3 18.4 C 11.3 km/h
8 04-06-2020 00:35:00 18.4 C 11.17 g/m*3 18.4 C 9.7 km/h
9 04-06-2020 00:40:00 18.4 C 11.32 g/m*3 18.4 C 6.4 km/h
10 04-06-2020 00:45:00 18.4 C 11.32 g/m*3 18.4 C 11.3 km/h
11 04-06-2020 00:50:00 18.4 C 11.32 g/m*3 18.4 C 8.1 km/h
12 04-06-2020 00:55:00 18.4 C 11.32 g/m*3 18.4 C 8.1 km/h
13 04-06-2020 01:00:00 18.4 C 11.32 g/m*3 18.4 C 11.3 km/h
14 04-06-2020 01:05:00 18.4 C 11.48 g/m*3 18.4 C 8.1 km/h
15 04-06-2020 01:10:00 18.4 C 11.48 g/m*3 18.4 C 8.1 km/h
16 04-06-2020 01:15:00 18.3 C 11.88 g/m*3 18.3 C 16.1 km/h
17 04-06-2020 01:20:00 18.1 C 12.05 g/m*3 18.1 C 11.3 km/h
18 04-06-2020 01:25:00 17.6 C 12.15 g/m*3 17.6 C 9.7 km/h
19 04-06-2020 01:30:00 17.3 C 12.23 g/m*3 17.3 C 9.7 km/h
20 04-06-2020 01:35:00 17.1 C 12.23 g/m*3 17.1 C 6.4 km/h
21 04-06-2020 01:40:00 16.9 C 12.23 g/m*3 16.9 C 12.9 km/h
22 04-06-2020 01:45:00 16.7 C 12.22 g/m*3 16.7 C 9.7 km/h
23 04-06-2020 01:50:00 16.6 C 12.15 g/m*3 16.6 C 8.1 km/h
24 04-06-2020 01:55:00 16.4 C 12.14 g/m*3 16.4 C 8.1 km/h
25 04-06-2020 02:00:00 16.3 C 12.21 g/m*3 16.3 C 8.1 km/h
Sensor: Nr:Datum:Temp:Abs-Feuchte:Windchill:Wind:
Aussen-T/F 26 04-06-2020 02:05:00 16.2 C 12.14 g/m*3 16.2 C 6.4 km/h
27 04-06-2020 02:10:00 16.1 C 12.2 g/m*3 16.1 C 6.4 km/h
28 04-06-2020 02:15:00 16 C 12.13 g/m*3 16 C 6.4 km/h
29 04-06-2020 02:20:00 15.9 C 12.05 g/m*3 15.9 C 4.8 km/h
30 04-06-2020 02:25:00 15.7 C 11.91 g/m*3 15.7 C 8.1 km/h
31 04-06-2020 02:30:00 15.6 C 11.84 g/m*3 15.6 C 8.1 km/h
32 04-06-2020 02:35:00 15.4 C 11.82 g/m*3 15.4 C 6.4 km/h
33 04-06-2020 02:40:00 15.3 C 11.75 g/m*3 15.3 C 8.1 km/h
34 04-06-2020 02:45:00 15.2 C 11.68 g/m*3 15.2 C 8.1 km/h
35 04-06-2020 02:50:00 15.1 C 11.74 g/m*3 15.1 C 6.4 km/h
36 04-06-2020 02:55:00 15 C 11.67 g/m*3 15 C 4.8 km/h
37 04-06-2020 03:00:00 15 C 11.8 g/m*3 15 C 4.8 km/h
38 04-06-2020 03:05:00 14.9 C 11.73 g/m*3 14.9 C 1.6 km/h
39 04-06-2020 03:10:00 14.9 C 11.73 g/m*3 14.9 C 0 km/h
40 04-06-2020 03:15:00 15 C 11.8 g/m*3 15 C 0 km/h
41 04-06-2020 03:20:00 14.9 C 11.73 g/m*3 14.9 C 0 km/h
42 04-06-2020 03:25:00 14.9 C 11.73 g/m*3 14.9 C 1.6 km/h
43 04-06-2020 03:30:00 14.9 C 11.85 g/m*3 14.9 C 0 km/h
44 04-06-2020 03:35:00 14.9 C 11.85 g/m*3 14.9 C 0 km/h
45 04-06-2020 03:40:00 14.9 C 11.85 g/m*3 14.9 C 0 km/h
46 04-06-2020 03:45:00 14.9 C 11.85 g/m*3 14.9 C 0 km/h
47 04-06-2020 03:50:00 14.9 C 11.98 g/m*3 14.9 C 0 km/h
48 04-06-2020 03:55:00 14.9 C 11.98 g/m*3 14.9 C 0 km/h
49 04-06-2020 04:00:00 14.9 C 11.98 g/m*3 14.9 C 0 km/h
50 04-06-2020 04:05:00 14.9 C 11.98 g/m*3 14.9 C 0 km/h
Sensor: Nr:Datum:Temp:Abs-Feuchte:Windchill:Wind:
Aussen-T/F 51 04-06-2020 04:10:00 14.8 C 11.91 g/m*3 14.8 C 0 km/h
52 04-06-2020 04:15:00 14.8 C 11.91 g/m*3 14.8 C 0 km/h
53 04-06-2020 04:20:00 14.8 C 11.91 g/m*3 14.8 C 3.2 km/h
54 04-06-2020 04:25:00 14.8 C 11.91 g/m*3 14.8 C 3.2 km/h
55 04-06-2020 04:30:00 14.8 C 11.91 g/m*3 14.8 C 3.2 km/h
56 04-06-2020 04:35:00 14.8 C 11.91 g/m*3 14.8 C 4.8 km/h
57 04-06-2020 04:40:00 14.7 C 11.83 g/m*3 14.7 C 1.6 km/h
58 04-06-2020 04:45:00 14.8 C 11.91 g/m*3 14.8 C 0 km/h
59 04-06-2020 04:50:00 14.7 C 11.83 g/m*3 14.7 C 1.6 km/h
60 04-06-2020 04:55:00 14.7 C 11.83 g/m*3 14.7 C 0 km/h
61 04-06-2020 05:00:00 14.7 C 11.83 g/m*3 14.7 C 0 km/h
62 04-06-2020 05:05:00 14.7 C 11.83 g/m*3 14.7 C 0 km/h
63 04-06-2020 05:10:00 14.7 C 11.83 g/m*3 14.7 C 1.6 km/h
64 04-06-2020 05:15:00 14.7 C 11.83 g/m*3 14.7 C 1.6 km/h
65 04-06-2020 05:20:00 14.6 C 11.76 g/m*3 14.6 C 3.2 km/h
66 04-06-2020 05:25:00 14.6 C 11.76 g/m*3 14.6 C 0 km/h
67 04-06-2020 05:30:00 14.6 C 11.76 g/m*3 14.6 C 1.6 km/h
68 04-06-2020 05:35:00 14.5 C 11.69 g/m*3 14.5 C 0 km/h
69 04-06-2020 05:40:00 14.4 C 11.62 g/m*3 14.4 C 0 km/h
70 04-06-2020 05:45:00 14.4 C 11.62 g/m*3 14.4 C 3.2 km/h
71 04-06-2020 05:50:00 14.3 C 11.55 g/m*3 14.3 C 0 km/h
72 04-06-2020 05:55:00 14.3 C 11.67 g/m*3 14.3 C 0 km/h
73 04-06-2020 06:00:00 14.3 C 11.67 g/m*3 14.3 C 0 km/h
74 04-06-2020 06:05:00 14.3 C 11.67 g/m*3 14.3 C 0 km/h
75 04-06-2020 06:10:00 14.3 C 11.67 g/m*3 14.3 C 0 km/h
Sensor: Nr:Datum:Temp:Abs-Feuchte:Windchill:Wind:
Aussen-T/F 76 04-06-2020 06:15:00 14.3 C 11.67 g/m*3 14.3 C 0 km/h
77 04-06-2020 06:20:00 14.3 C 11.67 g/m*3 14.3 C 0 km/h
78 04-06-2020 06:25:00 14.3 C 11.67 g/m*3 14.3 C 0 km/h
79 04-06-2020 06:30:00 14.3 C 11.67 g/m*3 14.3 C 0 km/h
80 04-06-2020 06:35:00 14.3 C 11.67 g/m*3 14.3 C 0 km/h
81 04-06-2020 06:40:00 14.3 C 11.67 g/m*3 14.3 C 0 km/h
82 04-06-2020 06:45:00 14.3 C 11.67 g/m*3 14.3 C 0 km/h
83 04-06-2020 06:50:00 14.3 C 11.67 g/m*3 14.3 C 0 km/h
84 04-06-2020 06:55:00 14.3 C 11.67 g/m*3 14.3 C 0 km/h
85 04-06-2020 07:00:00 14.4 C 11.74 g/m*3 14.4 C 0 km/h
86 04-06-2020 07:05:00 14.4 C 11.74 g/m*3 14.4 C 0 km/h
87 04-06-2020 07:10:00 14.4 C 11.74 g/m*3 14.4 C 0 km/h
88 04-06-2020 07:15:00 14.4 C 11.74 g/m*3 14.4 C 0 km/h
89 04-06-2020 07:20:00 14.4 C 11.74 g/m*3 14.4 C 0 km/h
90 04-06-2020 07:25:00 14.4 C 11.74 g/m*3 14.4 C 0 km/h
91 04-06-2020 07:30:00 14.4 C 11.74 g/m*3 14.4 C 0 km/h
92 04-06-2020 07:35:00 14.5 C 11.82 g/m*3 14.5 C 0 km/h
93 04-06-2020 07:40:00 14.5 C 11.82 g/m*3 14.5 C 0 km/h
94 04-06-2020 07:45:00 14.6 C 12.01 g/m*3 14.6 C 0 km/h
95 04-06-2020 07:50:00 14.6 C 12.01 g/m*3 14.6 C 0 km/h
96 04-06-2020 07:55:00 14.6 C 12.01 g/m*3 14.6 C 0 km/h
97 04-06-2020 08:00:00 14.6 C 12.01 g/m*3 14.6 C 0 km/h
98 04-06-2020 08:05:00 14.6 C 12.01 g/m*3 14.6 C 0 km/h
99 04-06-2020 08:10:00 14.6 C 12.01 g/m*3 14.6 C 0 km/h
100 04-06-2020 08:15:00 14.6 C 12.01 g/m*3 14.6 C 0 km/h
Sensor: Nr:Datum:Temp:Abs-Feuchte:Windchill:Wind:
Aussen-T/F 101 04-06-2020 08:20:00 14.6 C 12.01 g/m*3 14.6 C 0 km/h
102 04-06-2020 08:25:00 14.6 C 12.01 g/m*3 14.6 C 0 km/h
103 04-06-2020 08:30:00 14.6 C 12.01 g/m*3 14.6 C 0 km/h
104 04-06-2020 08:35:00 14.6 C 12.01 g/m*3 14.6 C 0 km/h
105 04-06-2020 08:40:00 14.6 C 12.01 g/m*3 14.6 C 0 km/h
106 04-06-2020 08:45:00 14.7 C 12.09 g/m*3 14.7 C 0 km/h
107 04-06-2020 08:50:00 14.7 C 12.09 g/m*3 14.7 C 0 km/h
108 04-06-2020 08:55:00 14.7 C 12.09 g/m*3 14.7 C 0 km/h
109 04-06-2020 09:00:00 14.7 C 12.09 g/m*3 14.7 C 0 km/h
110 04-06-2020 09:05:00 14.7 C 12.09 g/m*3 14.7 C 0 km/h
111 04-06-2020 09:10:00 14.8 C 12.16 g/m*3 14.8 C 0 km/h
112 04-06-2020 09:15:00 14.9 C 12.24 g/m*3 14.9 C 0 km/h
113 04-06-2020 09:20:00 14.9 C 12.24 g/m*3 14.9 C 0 km/h
114 04-06-2020 09:25:00 15 C 12.31 g/m*3 15 C 0 km/h
115 04-06-2020 09:30:00 15.1 C 12.39 g/m*3 15.1 C 0 km/h
116 04-06-2020 09:35:00 15.1 C 12.39 g/m*3 15.1 C 0 km/h
117 04-06-2020 09:40:00 15.1 C 12.39 g/m*3 15.1 C 0 km/h
118 04-06-2020 09:45:00 15.1 C 12.39 g/m*3 15.1 C 0 km/h
119 04-06-2020 09:50:00 14.9 C 12.24 g/m*3 14.9 C 0 km/h
120 04-06-2020 09:55:00 14.9 C 12.24 g/m*3 14.9 C 0 km/h
121 04-06-2020 10:00:00 14.9 C 12.24 g/m*3 14.9 C 0 km/h
122 04-06-2020 10:05:00 14.9 C 12.24 g/m*3 14.9 C 0 km/h
123 04-06-2020 10:10:00 15 C 12.31 g/m*3 15 C 0 km/h
124 04-06-2020 10:15:00 15.1 C 12.39 g/m*3 15.1 C 0 km/h
125 04-06-2020 10:20:00 15.1 C 12.39 g/m*3 15.1 C 3.2 km/h
Sensor: Nr:Datum:Temp:Abs-Feuchte:Windchill:Wind:
Aussen-T/F 126 04-06-2020 10:25:00 14.9 C 12.24 g/m*3 14.9 C 0 km/h
127 04-06-2020 10:30:00 14.9 C 12.24 g/m*3 14.9 C 0 km/h
128 04-06-2020 10:35:00 15.1 C 12.39 g/m*3 15.1 C 0 km/h
129 04-06-2020 10:40:00 15.2 C 12.46 g/m*3 15.2 C 0 km/h
130 04-06-2020 10:45:00 15.4 C 12.61 g/m*3 15.4 C 0 km/h
131 04-06-2020 10:50:00 15.5 C 12.69 g/m*3 15.5 C 0 km/h
132 04-06-2020 10:55:00 15.5 C 12.69 g/m*3 15.5 C 0 km/h
133 04-06-2020 11:00:00 15.4 C 12.61 g/m*3 15.4 C 0 km/h
134 04-06-2020 11:05:00 15.4 C 12.61 g/m*3 15.4 C 3.2 km/h
135 04-06-2020 11:10:00 15.5 C 12.69 g/m*3 15.5 C 3.2 km/h
136 04-06-2020 11:15:00 15.6 C 12.77 g/m*3 15.6 C 3.2 km/h
137 04-06-2020 11:20:00 15.7 C 12.84 g/m*3 15.7 C 0 km/h
138 04-06-2020 11:25:00 15.7 C 12.84 g/m*3 15.7 C 0 km/h
139 04-06-2020 11:30:00 15.9 C 13.14 g/m*3 15.9 C 0 km/h
140 04-06-2020 11:35:00 15.9 C 13 g/m*3 15.9 C 0 km/h
141 04-06-2020 11:40:00 16.1 C 13.16 g/m*3 16.1 C 0 km/h
142 04-06-2020 11:45:00 16.1 C 13.16 g/m*3 16.1 C 1.6 km/h
143 04-06-2020 11:50:00 16.2 C 13.24 g/m*3 16.2 C 0 km/h
144 04-06-2020 11:55:00 16.1 C 13.02 g/m*3 16.1 C 1.6 km/h
145 04-06-2020 12:00:00 16 C 12.94 g/m*3 16 C 0 km/h
146 04-06-2020 12:05:00 15.8 C 12.65 g/m*3 15.8 C 4.8 km/h
147 04-06-2020 12:10:00 15.5 C 12.29 g/m*3 15.5 C 4.8 km/h
148 04-06-2020 12:15:00 15.4 C 12.22 g/m*3 15.4 C 4.8 km/h
149 04-06-2020 12:20:00 15.5 C 12.43 g/m*3 15.5 C 1.6 km/h
150 04-06-2020 12:25:00 15.5 C 12.43 g/m*3 15.5 C 3.2 km/h
Sensor: Nr:Datum:Temp:Abs-Feuchte:Windchill:Wind:
Aussen-T/F 151 04-06-2020 12:30:00 15.6 C 12.5 g/m*3 15.6 C 1.6 km/h
152 04-06-2020 12:35:00 15.8 C 12.79 g/m*3 15.8 C 1.6 km/h
153 04-06-2020 12:40:00 15.9 C 12.87 g/m*3 15.9 C 0 km/h
154 04-06-2020 12:45:00 16.2 C 13.1 g/m*3 16.2 C 0 km/h
155 04-06-2020 12:50:00 16.2 C 12.96 g/m*3 16.2 C 1.6 km/h
156 04-06-2020 12:55:00 16.3 C 13.04 g/m*3 16.3 C 3.2 km/h
157 04-06-2020 13:00:00 16.2 C 12.55 g/m*3 16.2 C 6.4 km/h
158 04-06-2020 13:05:00 16.2 C 12.55 g/m*3 16.2 C 3.2 km/h
159 04-06-2020 13:10:00 16.2 C 12.41 g/m*3 16.2 C 4.8 km/h
160 04-06-2020 13:15:00 16.3 C 12.35 g/m*3 16.3 C 6.4 km/h
161 04-06-2020 13:20:00 16.5 C 12.5 g/m*3 16.5 C 3.2 km/h
162 04-06-2020 13:25:00 16.6 C 12.57 g/m*3 16.6 C 3.2 km/h
163 04-06-2020 13:30:00 16.7 C 12.65 g/m*3 16.7 C 0 km/h
164 04-06-2020 13:35:00 16.8 C 13.01 g/m*3 16.8 C 0 km/h
165 04-06-2020 13:40:00 16.7 C 12.51 g/m*3 16.7 C 9.7 km/h
166 04-06-2020 13:45:00 16.6 C 12.29 g/m*3 16.6 C 9.7 km/h
167 04-06-2020 13:50:00 16.2 C 12 g/m*3 16.2 C 12.9 km/h
168 04-06-2020 13:55:00 16 C 11.99 g/m*3 16 C 6.4 km/h
169 04-06-2020 14:00:00 15.8 C 11.85 g/m*3 15.8 C 4.8 km/h
170 04-06-2020 14:05:00 15.6 C 11.97 g/m*3 15.6 C 8.1 km/h
171 04-06-2020 14:10:00 15.4 C 11.96 g/m*3 15.4 C 0 km/h
172 04-06-2020 14:15:00 15.4 C 11.96 g/m*3 15.4 C 0 km/h
173 04-06-2020 14:20:00 15.4 C 12.09 g/m*3 15.4 C 6.4 km/h
174 04-06-2020 14:25:00 15.3 C 12.01 g/m*3 15.3 C 1.6 km/h
175 04-06-2020 14:30:00 15.3 C 12.01 g/m*3 15.3 C 0 km/h
Sensor: Nr:Datum:Temp:Abs-Feuchte:Windchill:Wind:
Aussen-T/F 176 04-06-2020 14:35:00 15.3 C 12.01 g/m*3 15.3 C 6.4 km/h
177 04-06-2020 14:40:00 15.3 C 12.01 g/m*3 15.3 C 6.4 km/h
178 04-06-2020 14:45:00 15.2 C 11.94 g/m*3 15.2 C 6.4 km/h
179 04-06-2020 14:50:00 15.1 C 11.87 g/m*3 15.1 C 4.8 km/h
180 04-06-2020 14:55:00 15 C 11.67 g/m*3 15 C 8.1 km/h
181 04-06-2020 15:00:00 15 C 11.67 g/m*3 15 C 6.4 km/h
182 04-06-2020 15:05:00 15.1 C 12 g/m*3 15.1 C 1.6 km/h
183 04-06-2020 15:10:00 15.1 C 11.87 g/m*3 15.1 C 4.8 km/h
184 04-06-2020 15:15:00 15.1 C 11.87 g/m*3 15.1 C 8.1 km/h
185 04-06-2020 15:20:00 15.1 C 11.87 g/m*3 15.1 C 8.1 km/h
186 04-06-2020 15:25:00 15.3 C 12.14 g/m*3 15.3 C 3.2 km/h
187 04-06-2020 15:30:00 15.3 C 12.01 g/m*3 15.3 C 9.7 km/h
188 04-06-2020 15:35:00 15.2 C 11.94 g/m*3 15.2 C 9.7 km/h
189 04-06-2020 15:40:00 15.3 C 12.01 g/m*3 15.3 C 6.4 km/h
190 04-06-2020 15:45:00 15.3 C 12.01 g/m*3 15.3 C 6.4 km/h
191 04-06-2020 15:50:00 15.3 C 11.88 g/m*3 15.3 C 8.1 km/h
192 04-06-2020 15:55:00 15.2 C 11.81 g/m*3 15.2 C 12.9 km/h
193 04-06-2020 16:00:00 15.2 C 11.81 g/m*3 15.2 C 8.1 km/h
194 04-06-2020 16:05:00 15.2 C 11.68 g/m*3 15.2 C 11.3 km/h
195 04-06-2020 16:10:00 15.2 C 11.68 g/m*3 15.2 C 9.7 km/h
196 04-06-2020 16:15:00 15.3 C 11.88 g/m*3 15.3 C 9.7 km/h
197 04-06-2020 16:20:00 15.2 C 11.68 g/m*3 15.2 C 6.4 km/h
198 04-06-2020 16:25:00 15.2 C 11.81 g/m*3 15.2 C 1.6 km/h
199 04-06-2020 16:30:00 15.1 C 11.74 g/m*3 15.1 C 9.7 km/h
200 04-06-2020 16:35:00 15 C 11.54 g/m*3 15 C 6.4 km/h
Sensor: Nr:Datum:Temp:Abs-Feuchte:Windchill:Wind:
Aussen-T/F 201 04-06-2020 16:40:00 15 C 11.67 g/m*3 15 C 11.3 km/h
202 04-06-2020 16:45:00 14.9 C 11.6 g/m*3 14.9 C 3.2 km/h
203 04-06-2020 16:50:00 14.9 C 11.6 g/m*3 14.9 C 8.1 km/h
204 04-06-2020 16:55:00 15 C 11.54 g/m*3 15 C 6.4 km/h
205 04-06-2020 17:00:00 15.1 C 11.74 g/m*3 15.1 C 6.4 km/h
206 04-06-2020 17:05:00 15 C 11.54 g/m*3 15 C 12.9 km/h
207 04-06-2020 17:10:00 14.9 C 11.34 g/m*3 14.9 C 14.5 km/h
208 04-06-2020 17:15:00 14.9 C 11.34 g/m*3 14.9 C 11.3 km/h
209 04-06-2020 17:20:00 14.8 C 11.27 g/m*3 14.8 C 14.5 km/h
210 04-06-2020 17:25:00 14.7 C 11.21 g/m*3 14.7 C 11.3 km/h
211 04-06-2020 17:30:00 14.6 C 11.14 g/m*3 14.6 C 11.3 km/h
212 04-06-2020 17:35:00 14.5 C 11.07 g/m*3 14.5 C 19.3 km/h
213 04-06-2020 17:40:00 14.3 C 10.93 g/m*3 14.3 C 6.4 km/h
214 04-06-2020 17:45:00 14.3 C 10.93 g/m*3 14.3 C 6.4 km/h
215 04-06-2020 17:50:00 14.2 C 10.87 g/m*3 14.2 C 9.7 km/h
216 04-06-2020 17:55:00 14.2 C 10.87 g/m*3 14.2 C 16.1 km/h
217 04-06-2020 18:00:00 14.1 C 10.8 g/m*3 14.1 C 16.1 km/h
218 04-06-2020 18:05:00 14 C 10.74 g/m*3 14 C 6.4 km/h
219 04-06-2020 18:10:00 13.9 C 10.67 g/m*3 13.9 C 9.7 km/h
220 04-06-2020 18:15:00 13.8 C 10.48 g/m*3 13.8 C 11.3 km/h
221 04-06-2020 18:20:00 13.7 C 10.42 g/m*3 13.7 C 11.3 km/h
222 04-06-2020 18:25:00 13.6 C 10.47 g/m*3 13.6 C 4.8 km/h
223 04-06-2020 18:30:00 13.6 C 10.59 g/m*3 13.6 C 4.8 km/h
224 04-06-2020 18:35:00 13.5 C 10.53 g/m*3 13.5 C 3.2 km/h
225 04-06-2020 18:40:00 13.4 C 10.46 g/m*3 13.4 C 1.6 km/h
Sensor: Nr:Datum:Temp:Abs-Feuchte:Windchill:Wind:
Aussen-T/F 226 04-06-2020 18:45:00 13.4 C 10.58 g/m*3 13.4 C 1.6 km/h
227 04-06-2020 18:50:00 13.4 C 10.58 g/m*3 13.4 C 1.6 km/h
228 04-06-2020 18:55:00 13.4 C 10.69 g/m*3 13.4 C 0 km/h
229 04-06-2020 19:00:00 13.4 C 10.69 g/m*3 13.4 C 1.6 km/h
230 04-06-2020 19:05:00 13.3 C 10.63 g/m*3 13.3 C 4.8 km/h
231 04-06-2020 19:10:00 13.3 C 10.63 g/m*3 13.3 C 1.6 km/h
232 04-06-2020 19:15:00 13.2 C 10.56 g/m*3 13.2 C 3.2 km/h
233 04-06-2020 19:20:00 13.2 C 10.56 g/m*3 13.2 C 3.2 km/h
234 04-06-2020 19:25:00 13.2 C 10.56 g/m*3 13.2 C 1.6 km/h
235 04-06-2020 19:30:00 13.2 C 10.68 g/m*3 13.2 C 0 km/h
236 04-06-2020 19:35:00 13.2 C 10.68 g/m*3 13.2 C 1.6 km/h
237 04-06-2020 19:40:00 13 C 10.43 g/m*3 13 C 3.2 km/h
238 04-06-2020 19:45:00 12.9 C 10.48 g/m*3 12.9 C 0 km/h
239 04-06-2020 19:50:00 12.9 C 10.48 g/m*3 12.9 C 0 km/h
240 04-06-2020 19:55:00 12.9 C 10.48 g/m*3 12.9 C 0 km/h
241 04-06-2020 20:00:00 12.9 C 10.48 g/m*3 12.9 C 0 km/h
242 04-06-2020 20:05:00 12.9 C 10.48 g/m*3 12.9 C 1.6 km/h
243 04-06-2020 20:10:00 12.9 C 10.48 g/m*3 12.9 C 3.2 km/h
244 04-06-2020 20:15:00 12.8 C 10.42 g/m*3 12.8 C 4.8 km/h
245 04-06-2020 20:20:00 12.7 C 10.35 g/m*3 12.7 C 1.6 km/h
246 04-06-2020 20:25:00 12.7 C 10.35 g/m*3 12.7 C 6.4 km/h
247 04-06-2020 20:30:00 12.7 C 10.24 g/m*3 12.7 C 8.1 km/h
248 04-06-2020 20:35:00 12.7 C 10.24 g/m*3 12.7 C 4.8 km/h
249 04-06-2020 20:40:00 12.6 C 10.18 g/m*3 12.6 C 4.8 km/h
250 04-06-2020 20:45:00 12.7 C 10.24 g/m*3 12.7 C 0 km/h
Sensor: Nr:Datum:Temp:Abs-Feuchte:Windchill:Wind:
Aussen-T/F 251 04-06-2020 20:50:00 12.7 C 10.24 g/m*3 12.7 C 4.8 km/h
252 04-06-2020 20:55:00 12.7 C 10.24 g/m*3 12.7 C 1.6 km/h
253 04-06-2020 21:00:00 12.7 C 10.24 g/m*3 12.7 C 6.4 km/h
254 04-06-2020 21:05:00 12.6 C 10.18 g/m*3 12.6 C 3.2 km/h
255 04-06-2020 21:10:00 12.6 C 10.18 g/m*3 12.6 C 6.4 km/h
256 04-06-2020 21:15:00 12.5 C 10 g/m*3 12.5 C 11.3 km/h
257 04-06-2020 21:20:00 12.4 C 9.83 g/m*3 12.4 C 8.1 km/h
258 04-06-2020 21:25:00 12.4 C 9.94 g/m*3 12.4 C 4.8 km/h
259 04-06-2020 21:30:00 12.4 C 9.94 g/m*3 12.4 C 6.4 km/h
260 04-06-2020 21:35:00 12.3 C 9.77 g/m*3 12.3 C 0 km/h
261 04-06-2020 21:40:00 12.3 C 9.88 g/m*3 12.3 C 4.8 km/h
262 04-06-2020 21:45:00 12.2 C 9.82 g/m*3 12.2 C 4.8 km/h
263 04-06-2020 21:50:00 12.2 C 9.82 g/m*3 12.2 C 1.6 km/h
264 04-06-2020 21:55:00 12.1 C 9.87 g/m*3 12.1 C 3.2 km/h
265 04-06-2020 22:00:00 12.1 C 9.87 g/m*3 12.1 C 4.8 km/h
266 04-06-2020 22:05:00 11.9 C 9.74 g/m*3 11.9 C 4.8 km/h
267 04-06-2020 22:10:00 11.9 C 9.74 g/m*3 11.9 C 1.6 km/h
268 04-06-2020 22:15:00 11.8 C 9.68 g/m*3 11.8 C 6.4 km/h
269 04-06-2020 22:20:00 11.8 C 9.68 g/m*3 11.8 C 4.8 km/h
270 04-06-2020 22:25:00 11.7 C 9.73 g/m*3 11.7 C 4.8 km/h
271 04-06-2020 22:30:00 11.7 C 9.73 g/m*3 11.7 C 4.8 km/h
272 04-06-2020 22:35:00 11.6 C 9.67 g/m*3 11.6 C 4.8 km/h
273 04-06-2020 22:40:00 11.6 C 9.67 g/m*3 11.6 C 4.8 km/h
274 04-06-2020 22:45:00 11.5 C 9.61 g/m*3 11.5 C 4.8 km/h
275 04-06-2020 22:50:00 11.4 C 9.55 g/m*3 11.4 C 6.4 km/h
Sensor: Nr:Datum:Temp:Abs-Feuchte:Windchill:Wind:
Aussen-T/F 276 04-06-2020 22:55:00 11.3 C 9.49 g/m*3 11.3 C 8.1 km/h
277 04-06-2020 23:00:00 11.3 C 9.49 g/m*3 11.3 C 4.8 km/h
278 04-06-2020 23:05:00 11.3 C 9.59 g/m*3 11.3 C 4.8 km/h
279 04-06-2020 23:10:00 11.2 C 9.53 g/m*3 11.2 C 6.4 km/h
280 04-06-2020 23:15:00 11.2 C 9.53 g/m*3 11.2 C 6.4 km/h
281 04-06-2020 23:20:00 11.2 C 9.53 g/m*3 11.2 C 6.4 km/h
282 04-06-2020 23:25:00 11.2 C 9.53 g/m*3 11.2 C 6.4 km/h
283 04-06-2020 23:30:00 11.1 C 9.47 g/m*3 11.1 C 4.8 km/h
284 04-06-2020 23:35:00 11.1 C 9.47 g/m*3 11.1 C 4.8 km/h
285 04-06-2020 23:40:00 11.1 C 9.47 g/m*3 11.1 C 4.8 km/h
286 04-06-2020 23:45:00 11.1 C 9.47 g/m*3 11.1 C 1.6 km/h
287 04-06-2020 23:50:00 11.1 C 9.47 g/m*3 11.1 C 3.2 km/h
288 04-06-2020 23:55:00 11.1 C 9.57 g/m*3 11.1 C 1.6 km/h
289 05-06-2020 00:00:00 11.1 C 9.57 g/m*3 11.1 C 3.2 km/h
290 05-06-2020 00:05:00 11.1 C 9.57 g/m*3 11.1 C 3.2 km/h
291 05-06-2020 00:10:00 11.2 C 9.63 g/m*3 11.2 C 1.6 km/h
292 05-06-2020 00:15:00 11.2 C 9.63 g/m*3 11.2 C 6.4 km/h
293 05-06-2020 00:20:00 11.1 C 9.37 g/m*3 11.1 C 11.3 km/h
294 05-06-2020 00:25:00 11.1 C 9.27 g/m*3 11.1 C 11.3 km/h
295 05-06-2020 00:30:00 11.2 C 9.33 g/m*3 11.2 C 3.2 km/h
296 05-06-2020 00:35:00 11.3 C 9.28 g/m*3 11.3 C 6.4 km/h
297 05-06-2020 00:40:00 11.3 C 9.28 g/m*3 11.3 C 4.8 km/h
298 05-06-2020 00:45:00 11.2 C 9.22 g/m*3 11.2 C 1.6 km/h
299 05-06-2020 00:50:00 11.2 C 9.22 g/m*3 11.2 C 6.4 km/h
300 05-06-2020 00:55:00 11.2 C 9.22 g/m*3 11.2 C 0 km/h
Sensor: Nr:Datum:Temp:Abs-Feuchte:Windchill:Wind:
Aussen-T/F 301 05-06-2020 01:00:00 11.1 C 9.17 g/m*3 11.1 C 6.4 km/h
302 05-06-2020 01:05:00 11.2 C 9.22 g/m*3 11.2 C 1.6 km/h
303 05-06-2020 01:10:00 11.1 C 9.17 g/m*3 11.1 C 4.8 km/h
304 05-06-2020 01:15:00 11.1 C 9.07 g/m*3 11.1 C 6.4 km/h
305 05-06-2020 01:20:00 11 C 9.01 g/m*3 11 C 3.2 km/h
306 05-06-2020 01:25:00 11.1 C 9.17 g/m*3 11.1 C 1.6 km/h
307 05-06-2020 01:30:00 11.1 C 9.17 g/m*3 11.1 C 1.6 km/h
308 05-06-2020 01:35:00 11 C 9.11 g/m*3 11 C 3.2 km/h
309 05-06-2020 01:40:00 11 C 9.01 g/m*3 11 C 4.8 km/h
310 05-06-2020 01:45:00 11 C 9.01 g/m*3 10.52 C 6.4 km/h
311 05-06-2020 01:50:00 10.9 C 8.75 g/m*3 9.76 C 9.7 km/h
312 05-06-2020 01:55:00 11 C 8.71 g/m*3 9.88 C 9.7 km/h
313 05-06-2020 02:00:00 11.1 C 8.76 g/m*3 11.1 C 11.3 km/h
314 05-06-2020 02:05:00 11.1 C 8.66 g/m*3 11.1 C 8.1 km/h
315 05-06-2020 02:10:00 11.1 C 8.66 g/m*3 11.1 C 6.4 km/h
316 05-06-2020 02:15:00 11.1 C 8.56 g/m*3 11.1 C 11.3 km/h
317 05-06-2020 02:20:00 11.1 C 8.56 g/m*3 11.1 C 4.8 km/h
318 05-06-2020 02:25:00 11.1 C 8.56 g/m*3 11.1 C 8.1 km/h
319 05-06-2020 02:30:00 11.1 C 8.66 g/m*3 11.1 C 1.6 km/h
320 05-06-2020 02:35:00 11.1 C 8.66 g/m*3 11.1 C 3.2 km/h
321 05-06-2020 02:40:00 10.9 C 8.55 g/m*3 10.9 C 1.6 km/h
322 05-06-2020 02:45:00 10.8 C 8.6 g/m*3 10.29 C 6.4 km/h
323 05-06-2020 02:50:00 10.8 C 8.6 g/m*3 10.8 C 1.6 km/h
324 05-06-2020 02:55:00 10.7 C 8.64 g/m*3 10.7 C 1.6 km/h
325 05-06-2020 03:00:00 10.7 C 8.64 g/m*3 10.7 C 4.8 km/h
Sensor: Nr:Datum:Temp:Abs-Feuchte:Windchill:Wind:
Aussen-T/F 326 05-06-2020 03:05:00 10.6 C 8.59 g/m*3 10.6 C 1.6 km/h
327 05-06-2020 03:10:00 10.6 C 8.69 g/m*3 10.6 C 1.6 km/h
328 05-06-2020 03:15:00 10.5 C 8.53 g/m*3 10.5 C 0 km/h
329 05-06-2020 03:20:00 10.5 C 8.53 g/m*3 10.5 C 0 km/h
330 05-06-2020 03:25:00 10.4 C 8.48 g/m*3 10.4 C 1.6 km/h
331 05-06-2020 03:30:00 10.4 C 8.48 g/m*3 10.4 C 3.2 km/h
332 05-06-2020 03:35:00 10.5 C 8.53 g/m*3 10.5 C 4.8 km/h
333 05-06-2020 03:40:00 10.5 C 8.44 g/m*3 10.5 C 1.6 km/h
334 05-06-2020 03:45:00 10.5 C 8.44 g/m*3 10.5 C 1.6 km/h
335 05-06-2020 03:50:00 10.6 C 8.49 g/m*3 10.6 C 1.6 km/h
336 05-06-2020 03:55:00 10.6 C 8.59 g/m*3 10.6 C 1.6 km/h
337 05-06-2020 04:00:00 10.4 C 8.48 g/m*3 10.4 C 1.6 km/h
338 05-06-2020 04:05:00 10.3 C 8.43 g/m*3 10.3 C 3.2 km/h
339 05-06-2020 04:10:00 10.1 C 8.32 g/m*3 10.1 C 3.2 km/h
340 05-06-2020 04:15:00 9.8 C 8.26 g/m*3 9.14 C 6.4 km/h
341 05-06-2020 04:20:00 9.6 C 8.15 g/m*3 9.6 C 4.8 km/h
342 05-06-2020 04:25:00 9.4 C 8.05 g/m*3 9.4 C 4.8 km/h
343 05-06-2020 04:30:00 9.3 C 8.09 g/m*3 9.3 C 0 km/h
344 05-06-2020 04:35:00 9.2 C 8.13 g/m*3 9.2 C 4.8 km/h
345 05-06-2020 04:40:00 9.1 C 8.07 g/m*3 9.1 C 4.8 km/h
346 05-06-2020 04:45:00 8.9 C 7.97 g/m*3 8.9 C 4.8 km/h
347 05-06-2020 04:50:00 8.9 C 7.97 g/m*3 8.9 C 1.6 km/h
348 05-06-2020 04:55:00 8.8 C 8.01 g/m*3 8.8 C 1.6 km/h
349 05-06-2020 05:00:00 8.8 C 8.01 g/m*3 8.8 C 3.2 km/h
350 05-06-2020 05:05:00 8.8 C 8.09 g/m*3 8.8 C 1.6 km/h
Sensor: Nr:Datum:Temp:Abs-Feuchte:Windchill:Wind:
Aussen-T/F 351 05-06-2020 05:10:00 8.8 C 8.09 g/m*3 8.8 C 3.2 km/h
352 05-06-2020 05:15:00 8.8 C 8.09 g/m*3 8.8 C 3.2 km/h
353 05-06-2020 05:20:00 8.8 C 8.09 g/m*3 8.8 C 3.2 km/h
354 05-06-2020 05:25:00 8.9 C 8.15 g/m*3 8.9 C 1.6 km/h
355 05-06-2020 05:30:00 8.9 C 8.15 g/m*3 8.9 C 0 km/h
356 05-06-2020 05:35:00 9 C 8.2 g/m*3 9 C 0 km/h
357 05-06-2020 05:40:00 9 C 8.2 g/m*3 9 C 0 km/h
358 05-06-2020 05:45:00 9.1 C 8.34 g/m*3 9.1 C 0 km/h
359 05-06-2020 05:50:00 9.1 C 8.34 g/m*3 9.1 C 0 km/h
360 05-06-2020 05:55:00 9.1 C 8.34 g/m*3 9.1 C 0 km/h
361 05-06-2020 06:00:00 9.1 C 8.34 g/m*3 9.1 C 0 km/h
362 05-06-2020 06:05:00 9.1 C 8.34 g/m*3 9.1 C 1.6 km/h
363 05-06-2020 06:10:00 9.2 C 8.39 g/m*3 9.2 C 3.2 km/h
364 05-06-2020 06:15:00 9.2 C 8.3 g/m*3 9.2 C 1.6 km/h
365 05-06-2020 06:20:00 9.3 C 8.36 g/m*3 9.3 C 0 km/h
366 05-06-2020 06:25:00 9.3 C 8.36 g/m*3 9.3 C 1.6 km/h
367 05-06-2020 06:30:00 9.4 C 8.41 g/m*3 9.4 C 4.8 km/h
368 05-06-2020 06:35:00 9.5 C 8.37 g/m*3 9.5 C 4.8 km/h
369 05-06-2020 06:40:00 9.5 C 8.37 g/m*3 8.79 C 6.4 km/h
370 05-06-2020 06:45:00 9.6 C 8.43 g/m*3 9.6 C 3.2 km/h
371 05-06-2020 06:50:00 9.6 C 8.34 g/m*3 9.6 C 3.2 km/h
372 05-06-2020 06:55:00 9.7 C 8.39 g/m*3 9.7 C 1.6 km/h
373 05-06-2020 07:00:00 9.7 C 8.39 g/m*3 9.7 C 3.2 km/h
374 05-06-2020 07:05:00 9.7 C 8.39 g/m*3 9.7 C 3.2 km/h
375 05-06-2020 07:10:00 9.8 C 8.44 g/m*3 9.8 C 1.6 km/h
Sensor: Nr:Datum:Temp:Abs-Feuchte:Windchill:Wind:
Aussen-T/F 376 05-06-2020 07:15:00 9.8 C 8.35 g/m*3 9.8 C 1.6 km/h
377 05-06-2020 07:20:00 9.9 C 8.5 g/m*3 9.9 C 1.6 km/h
378 05-06-2020 07:25:00 10 C 8.46 g/m*3 10 C 4.8 km/h
379 05-06-2020 07:30:00 10.1 C 8.51 g/m*3 10.1 C 4.8 km/h
380 05-06-2020 07:35:00 10.3 C 8.52 g/m*3 9.04 C 9.7 km/h
381 05-06-2020 07:40:00 10.4 C 8.58 g/m*3 9.16 C 9.7 km/h
382 05-06-2020 07:45:00 10.6 C 8.59 g/m*3 9.69 C 8.1 km/h
383 05-06-2020 07:50:00 10.7 C 8.64 g/m*3 9.52 C 9.7 km/h
384 05-06-2020 07:55:00 10.7 C 8.64 g/m*3 10.7 C 3.2 km/h
385 05-06-2020 08:00:00 10.7 C 8.55 g/m*3 10.7 C 4.8 km/h
386 05-06-2020 08:05:00 10.7 C 8.64 g/m*3 10.7 C 1.6 km/h
387 05-06-2020 08:10:00 10.7 C 8.55 g/m*3 9.81 C 8.1 km/h
388 05-06-2020 08:15:00 10.7 C 8.55 g/m*3 9.26 C 11.3 km/h
389 05-06-2020 08:20:00 10.7 C 8.55 g/m*3 10.18 C 6.4 km/h
390 05-06-2020 08:25:00 10.6 C 8.49 g/m*3 9.69 C 8.1 km/h
391 05-06-2020 08:30:00 10.7 C 8.55 g/m*3 10.7 C 3.2 km/h
392 05-06-2020 08:35:00 10.7 C 8.64 g/m*3 10.7 C 1.6 km/h
393 05-06-2020 08:40:00 10.8 C 8.7 g/m*3 10.8 C 4.8 km/h
394 05-06-2020 08:45:00 10.8 C 8.6 g/m*3 9.93 C 8.1 km/h
395 05-06-2020 08:50:00 11 C 8.71 g/m*3 9.88 C 9.7 km/h
396 05-06-2020 08:55:00 11.2 C 8.82 g/m*3 11.2 C 9.7 km/h
397 05-06-2020 09:00:00 11.3 C 8.87 g/m*3 11.3 C 9.7 km/h
398 05-06-2020 09:05:00 11.4 C 8.93 g/m*3 11.4 C 6.4 km/h
399 05-06-2020 09:10:00 11.6 C 8.94 g/m*3 11.6 C 9.7 km/h
400 05-06-2020 09:15:00 11.6 C 8.83 g/m*3 11.6 C 9.7 km/h
Sensor: Nr:Datum:Temp:Abs-Feuchte:Windchill:Wind:
Aussen-T/F 401 05-06-2020 09:20:00 11.6 C 8.73 g/m*3 11.6 C 8.1 km/h
402 05-06-2020 09:25:00 11.7 C 8.68 g/m*3 11.7 C 9.7 km/h
403 05-06-2020 09:30:00 11.8 C 8.84 g/m*3 11.8 C 11.3 km/h
404 05-06-2020 09:35:00 11.8 C 8.74 g/m*3 11.8 C 11.3 km/h
405 05-06-2020 09:40:00 11.9 C 8.79 g/m*3 11.9 C 9.7 km/h
406 05-06-2020 09:45:00 12 C 8.85 g/m*3 12 C 12.9 km/h
407 05-06-2020 09:50:00 12.1 C 9.01 g/m*3 12.1 C 6.4 km/h
408 05-06-2020 09:55:00 12.1 C 8.79 g/m*3 12.1 C 6.4 km/h
409 05-06-2020 10:00:00 12.1 C 8.79 g/m*3 12.1 C 9.7 km/h
410 05-06-2020 10:05:00 12.2 C 8.85 g/m*3 12.2 C 6.4 km/h
411 05-06-2020 10:10:00 12.2 C 8.85 g/m*3 12.2 C 6.4 km/h
412 05-06-2020 10:15:00 12.3 C 8.9 g/m*3 12.3 C 4.8 km/h
413 05-06-2020 10:20:00 12.4 C 8.85 g/m*3 12.4 C 8.1 km/h
414 05-06-2020 10:25:00 12.5 C 8.91 g/m*3 12.5 C 8.1 km/h
415 05-06-2020 10:30:00 12.7 C 9.02 g/m*3 12.7 C 12.9 km/h
416 05-06-2020 10:35:00 12.8 C 8.96 g/m*3 12.8 C 4.8 km/h
417 05-06-2020 10:40:00 12.9 C 9.02 g/m*3 12.9 C 6.4 km/h
418 05-06-2020 10:45:00 13.2 C 9.19 g/m*3 13.2 C 8.1 km/h
419 05-06-2020 10:50:00 13.4 C 9.18 g/m*3 13.4 C 11.3 km/h
420 05-06-2020 10:55:00 13.7 C 9.12 g/m*3 13.7 C 11.3 km/h
421 05-06-2020 11:00:00 14.1 C 9.22 g/m*3 14.1 C 12.9 km/h
422 05-06-2020 11:05:00 14.3 C 9.09 g/m*3 14.3 C 12.9 km/h
423 05-06-2020 11:10:00 14.6 C 9.13 g/m*3 14.6 C 12.9 km/h
424 05-06-2020 11:15:00 14.4 C 8.78 g/m*3 14.4 C 20.9 km/h
425 05-06-2020 11:20:00 14.1 C 8.62 g/m*3 14.1 C 17.7 km/h
Sensor: Nr:Datum:Temp:Abs-Feuchte:Windchill:Wind:
Aussen-T/F 426 05-06-2020 11:25:00 13.8 C 8.7 g/m*3 13.8 C 16.1 km/h
427 05-06-2020 11:30:00 13.8 C 8.7 g/m*3 13.8 C 11.3 km/h
428 05-06-2020 11:35:00 13.7 C 8.64 g/m*3 13.7 C 14.5 km/h
429 05-06-2020 11:40:00 13.7 C 8.76 g/m*3 13.7 C 17.7 km/h
430 05-06-2020 11:45:00 13.6 C 8.59 g/m*3 13.6 C 9.7 km/h
431 05-06-2020 11:50:00 13.6 C 8.59 g/m*3 13.6 C 9.7 km/h
432 05-06-2020 11:55:00 13.5 C 8.66 g/m*3 13.5 C 9.7 km/h
433 05-06-2020 12:00:00 13.6 C 8.59 g/m*3 13.6 C 12.9 km/h
434 05-06-2020 12:05:00 13.8 C 8.94 g/m*3 13.8 C 8.1 km/h
435 05-06-2020 12:10:00 14.1 C 8.74 g/m*3 14.1 C 12.9 km/h
436 05-06-2020 12:15:00 14.3 C 8.85 g/m*3 14.3 C 8.1 km/h
437 05-06-2020 12:20:00 14.4 C 8.78 g/m*3 14.4 C 6.4 km/h
438 05-06-2020 12:25:00 14.6 C 9.01 g/m*3 14.6 C 6.4 km/h
439 05-06-2020 12:30:00 14.6 C 8.76 g/m*3 14.6 C 14.5 km/h
440 05-06-2020 12:35:00 14.5 C 8.71 g/m*3 14.5 C 9.7 km/h
441 05-06-2020 12:40:00 14.5 C 8.83 g/m*3 14.5 C 14.5 km/h
442 05-06-2020 12:45:00 14.7 C 8.81 g/m*3 14.7 C 12.9 km/h
443 05-06-2020 12:50:00 14.8 C 8.74 g/m*3 14.8 C 14.5 km/h
444 05-06-2020 12:55:00 14.9 C 8.79 g/m*3 14.9 C 17.7 km/h
445 05-06-2020 13:00:00 14.9 C 8.79 g/m*3 14.9 C 16.1 km/h
446 05-06-2020 13:05:00 14.8 C 8.74 g/m*3 14.8 C 9.7 km/h
447 05-06-2020 13:10:00 14.5 C 8.58 g/m*3 14.5 C 11.3 km/h
448 05-06-2020 13:15:00 14.2 C 8.43 g/m*3 14.2 C 17.7 km/h
449 05-06-2020 13:20:00 14.1 C 8.5 g/m*3 14.1 C 12.9 km/h
450 05-06-2020 13:25:00 13.9 C 8.51 g/m*3 13.9 C 12.9 km/h
Sensor: Nr:Datum:Temp:Abs-Feuchte:Windchill:Wind:
Aussen-T/F 451 05-06-2020 13:30:00 13.8 C 8.34 g/m*3 13.8 C 20.9 km/h
452 05-06-2020 13:35:00 13.9 C 8.63 g/m*3 13.9 C 14.5 km/h
453 05-06-2020 13:40:00 13.9 C 8.75 g/m*3 13.9 C 14.5 km/h
454 05-06-2020 13:45:00 13.9 C 8.75 g/m*3 13.9 C 12.9 km/h
455 05-06-2020 13:50:00 14 C 8.81 g/m*3 14 C 12.9 km/h
456 05-06-2020 13:55:00 14.2 C 9.04 g/m*3 14.2 C 11.3 km/h
457 05-06-2020 14:00:00 14.2 C 8.91 g/m*3 14.2 C 22.5 km/h
458 05-06-2020 14:05:00 14.2 C 8.79 g/m*3 14.2 C 24.1 km/h
459 05-06-2020 14:10:00 14.2 C 9.04 g/m*3 14.2 C 16.1 km/h
460 05-06-2020 14:15:00 14.1 C 9.1 g/m*3 14.1 C 16.1 km/h
461 05-06-2020 14:20:00 13.9 C 9.35 g/m*3 13.9 C 12.9 km/h
462 05-06-2020 14:25:00 13.7 C 9.24 g/m*3 13.7 C 16.1 km/h
463 05-06-2020 14:30:00 13.6 C 9.3 g/m*3 13.6 C 11.3 km/h
464 05-06-2020 14:35:00 13.5 C 9.36 g/m*3 13.5 C 14.5 km/h
465 05-06-2020 14:40:00 13.4 C 9.53 g/m*3 13.4 C 9.7 km/h
466 05-06-2020 14:45:00 13.3 C 9.59 g/m*3 13.3 C 8.1 km/h
467 05-06-2020 14:50:00 13.2 C 9.64 g/m*3 13.2 C 4.8 km/h
468 05-06-2020 14:55:00 13.2 C 9.64 g/m*3 13.2 C 4.8 km/h
469 05-06-2020 15:00:00 13.2 C 9.87 g/m*3 13.2 C 12.9 km/h
470 05-06-2020 15:05:00 13.3 C 9.94 g/m*3 13.3 C 6.4 km/h
471 05-06-2020 15:10:00 13.4 C 10.11 g/m*3 13.4 C 12.9 km/h
472 05-06-2020 15:15:00 13.6 C 10.12 g/m*3 13.6 C 8.1 km/h
473 05-06-2020 15:20:00 13.7 C 10.3 g/m*3 13.7 C 6.4 km/h
474 05-06-2020 15:25:00 13.8 C 10.13 g/m*3 13.8 C 9.7 km/h
475 05-06-2020 15:30:00 13.9 C 10.31 g/m*3 13.9 C 14.5 km/h
Sensor: Nr:Datum:Temp:Abs-Feuchte:Windchill:Wind:
Aussen-T/F 476 05-06-2020 15:35:00 14 C 10.13 g/m*3 14 C 14.5 km/h
477 05-06-2020 15:40:00 14.1 C 10.32 g/m*3 14.1 C 4.8 km/h
478 05-06-2020 15:45:00 14 C 10.01 g/m*3 14 C 17.7 km/h
479 05-06-2020 15:50:00 13.9 C 10.07 g/m*3 13.9 C 14.5 km/h
480 05-06-2020 15:55:00 13.8 C 10.01 g/m*3 13.8 C 11.3 km/h
481 05-06-2020 16:00:00 13.7 C 9.95 g/m*3 13.7 C 14.5 km/h
482 05-06-2020 16:05:00 13.7 C 10.07 g/m*3 13.7 C 17.7 km/h
483 05-06-2020 16:10:00 13.7 C 10.07 g/m*3 13.7 C 19.3 km/h
484 05-06-2020 16:15:00 13.4 C 10 g/m*3 13.4 C 19.3 km/h
485 05-06-2020 16:20:00 13.1 C 9.93 g/m*3 13.1 C 27.4 km/h
486 05-06-2020 16:25:00 12.8 C 9.97 g/m*3 12.8 C 20.9 km/h
487 05-06-2020 16:30:00 12.5 C 10 g/m*3 12.5 C 14.5 km/h
488 05-06-2020 16:35:00 12.2 C 9.71 g/m*3 12.2 C 20.9 km/h
489 05-06-2020 16:40:00 11.9 C 9.64 g/m*3 11.9 C 11.3 km/h
490 05-06-2020 16:45:00 11.7 C 9.52 g/m*3 11.7 C 11.3 km/h
491 05-06-2020 16:50:00 11.4 C 9.34 g/m*3 11.4 C 12.9 km/h
492 05-06-2020 16:55:00 11.3 C 9.28 g/m*3 11.3 C 12.9 km/h
493 05-06-2020 17:00:00 11.2 C 9.33 g/m*3 11.2 C 12.9 km/h
494 05-06-2020 17:05:00 11.2 C 9.33 g/m*3 11.2 C 12.9 km/h
495 05-06-2020 17:10:00 11.2 C 9.43 g/m*3 11.2 C 8.1 km/h
496 05-06-2020 17:15:00 11.3 C 9.49 g/m*3 11.3 C 6.4 km/h
497 05-06-2020 17:20:00 12.2 C 10.25 g/m*3 12.2 C 8.1 km/h
498 05-06-2020 17:25:00 13.1 C 10.95 g/m*3 13.1 C 8.1 km/h
499 05-06-2020 17:30:00 12.9 C 10.26 g/m*3 12.9 C 14.5 km/h
500 05-06-2020 17:35:00 12.8 C 10.08 g/m*3 12.8 C 11.3 km/h
Sensor: Nr:Datum:Temp:Abs-Feuchte:Windchill:Wind:
Aussen-T/F 501 05-06-2020 17:40:00 12.8 C 10.19 g/m*3 12.8 C 6.4 km/h
502 05-06-2020 17:45:00 12.6 C 9.85 g/m*3 12.6 C 9.7 km/h
503 05-06-2020 17:50:00 12.6 C 9.85 g/m*3 12.6 C 9.7 km/h
504 05-06-2020 17:55:00 12.6 C 9.96 g/m*3 12.6 C 9.7 km/h
505 05-06-2020 18:00:00 12.4 C 9.72 g/m*3 12.4 C 17.7 km/h
506 05-06-2020 18:05:00 12.2 C 9.17 g/m*3 12.2 C 19.3 km/h
507 05-06-2020 18:10:00 12.1 C 9.33 g/m*3 12.1 C 4.8 km/h
508 05-06-2020 18:15:00 11.9 C 9.43 g/m*3 11.9 C 4.8 km/h
509 05-06-2020 18:20:00 11.8 C 9.37 g/m*3 11.8 C 14.5 km/h
510 05-06-2020 18:25:00 11.4 C 9.03 g/m*3 11.4 C 14.5 km/h
511 05-06-2020 18:30:00 11.2 C 9.12 g/m*3 11.2 C 6.4 km/h
512 05-06-2020 18:35:00 11.1 C 9.17 g/m*3 11.1 C 9.7 km/h
513 05-06-2020 18:40:00 11.1 C 9.17 g/m*3 11.1 C 9.7 km/h
514 05-06-2020 18:45:00 11.1 C 9.17 g/m*3 11.1 C 11.3 km/h
515 05-06-2020 18:50:00 11 C 9.11 g/m*3 8.86 C 17.7 km/h
516 05-06-2020 18:55:00 11 C 9.11 g/m*3 9.88 C 9.7 km/h
517 05-06-2020 19:00:00 11.1 C 9.27 g/m*3 11.1 C 8.1 km/h
518 05-06-2020 19:05:00 11.2 C 9.33 g/m*3 11.2 C 8.1 km/h
519 05-06-2020 19:10:00 11.2 C 9.33 g/m*3 11.2 C 9.7 km/h
520 05-06-2020 19:15:00 11.2 C 9.33 g/m*3 11.2 C 4.8 km/h
521 05-06-2020 19:20:00 11.3 C 9.49 g/m*3 11.3 C 4.8 km/h
522 05-06-2020 19:25:00 11.6 C 9.77 g/m*3 11.6 C 4.8 km/h
523 05-06-2020 19:30:00 11.8 C 9.79 g/m*3 11.8 C 11.3 km/h
524 05-06-2020 19:35:00 11.7 C 9.31 g/m*3 11.7 C 11.3 km/h
525 05-06-2020 19:40:00 11.7 C 8.99 g/m*3 11.7 C 14.5 km/h
Sensor: Nr:Datum:Temp:Abs-Feuchte:Windchill:Wind:
Aussen-T/F 526 05-06-2020 19:45:00 11.7 C 8.99 g/m*3 11.7 C 11.3 km/h
527 05-06-2020 19:50:00 11.7 C 9.1 g/m*3 11.7 C 6.4 km/h
528 05-06-2020 19:55:00 11.7 C 9.2 g/m*3 11.7 C 4.8 km/h
529 05-06-2020 20:00:00 11.6 C 9.15 g/m*3 11.6 C 9.7 km/h
530 05-06-2020 20:05:00 11.7 C 9.41 g/m*3 11.7 C 1.6 km/h
531 05-06-2020 20:10:00 11.8 C 9.16 g/m*3 11.8 C 8.1 km/h
532 05-06-2020 20:15:00 11.6 C 8.94 g/m*3 11.6 C 11.3 km/h
533 05-06-2020 20:20:00 11.4 C 8.72 g/m*3 11.4 C 8.1 km/h
534 05-06-2020 20:25:00 11.2 C 8.72 g/m*3 11.2 C 9.7 km/h
535 05-06-2020 20:30:00 11.2 C 8.92 g/m*3 11.2 C 8.1 km/h
536 05-06-2020 20:35:00 11 C 8.71 g/m*3 10.52 C 6.4 km/h
537 05-06-2020 20:40:00 10.9 C 8.75 g/m*3 10.41 C 6.4 km/h
538 05-06-2020 20:45:00 10.8 C 8.7 g/m*3 10.29 C 6.4 km/h
539 05-06-2020 20:50:00 10.8 C 8.8 g/m*3 10.8 C 4.8 km/h
540 05-06-2020 20:55:00 10.7 C 8.74 g/m*3 10.18 C 6.4 km/h
541 05-06-2020 21:00:00 10.6 C 8.69 g/m*3 10.06 C 6.4 km/h
542 05-06-2020 21:05:00 10.5 C 8.63 g/m*3 9.28 C 9.7 km/h
543 05-06-2020 21:10:00 10.4 C 8.58 g/m*3 9.83 C 6.4 km/h
544 05-06-2020 21:15:00 10.4 C 8.48 g/m*3 9.46 C 8.1 km/h
545 05-06-2020 21:20:00 10.5 C 8.63 g/m*3 9.95 C 6.4 km/h
546 05-06-2020 21:25:00 10.4 C 8.48 g/m*3 9.46 C 8.1 km/h
547 05-06-2020 21:30:00 10.4 C 8.48 g/m*3 9.16 C 9.7 km/h
548 05-06-2020 21:35:00 10.4 C 8.48 g/m*3 8.67 C 12.9 km/h
549 05-06-2020 21:40:00 10.3 C 8.43 g/m*3 9.04 C 9.7 km/h
550 05-06-2020 21:45:00 10.3 C 8.33 g/m*3 8.55 C 12.9 km/h
Sensor: Nr:Datum:Temp:Abs-Feuchte:Windchill:Wind:
Aussen-T/F 551 05-06-2020 21:50:00 10.3 C 8.43 g/m*3 9.04 C 9.7 km/h
552 05-06-2020 21:55:00 10.3 C 8.43 g/m*3 9.34 C 8.1 km/h
553 05-06-2020 22:00:00 10.3 C 8.33 g/m*3 8.78 C 11.3 km/h
554 05-06-2020 22:05:00 10.3 C 8.33 g/m*3 8.55 C 12.9 km/h
555 05-06-2020 22:10:00 10.2 C 8.28 g/m*3 8.43 C 12.9 km/h
556 05-06-2020 22:15:00 10.3 C 8.24 g/m*3 8.78 C 11.3 km/h
557 05-06-2020 22:20:00 10.3 C 8.33 g/m*3 9.72 C 6.4 km/h
558 05-06-2020 22:25:00 10.2 C 8.28 g/m*3 8.92 C 9.7 km/h
559 05-06-2020 22:30:00 10.1 C 8.32 g/m*3 9.48 C 6.4 km/h
560 05-06-2020 22:35:00 10.1 C 8.32 g/m*3 9.48 C 6.4 km/h
561 05-06-2020 22:40:00 10 C 8.27 g/m*3 8.42 C 11.3 km/h
562 05-06-2020 22:45:00 10 C 8.17 g/m*3 8.42 C 11.3 km/h
563 05-06-2020 22:50:00 10 C 8.17 g/m*3 8.68 C 9.7 km/h
564 05-06-2020 22:55:00 10 C 8.17 g/m*3 10 C 4.8 km/h
565 05-06-2020 23:00:00 10 C 8.17 g/m*3 9.37 C 6.4 km/h
566 05-06-2020 23:05:00 9.9 C 8.12 g/m*3 9.9 C 4.8 km/h
567 05-06-2020 23:10:00 9.8 C 8.16 g/m*3 8.75 C 8.1 km/h
568 05-06-2020 23:15:00 9.7 C 8.11 g/m*3 8.33 C 9.7 km/h
569 05-06-2020 23:20:00 9.7 C 8.11 g/m*3 9.02 C 6.4 km/h
570 05-06-2020 23:25:00 9.7 C 8.11 g/m*3 7.41 C 16.1 km/h
571 05-06-2020 23:30:00 9.8 C 8.07 g/m*3 8.75 C 8.1 km/h
572 05-06-2020 23:35:00 9.8 C 8.16 g/m*3 8.45 C 9.7 km/h
573 05-06-2020 23:40:00 9.8 C 8.07 g/m*3 8.75 C 8.1 km/h
574 05-06-2020 23:45:00 9.8 C 8.07 g/m*3 9.14 C 6.4 km/h
575 05-06-2020 23:50:00 9.8 C 8.07 g/m*3 9.14 C 6.4 km/h
Sensor: Nr:Datum:Temp:Abs-Feuchte:Windchill:Wind:
Aussen-T/F 576 05-06-2020 23:55:00 9.8 C 7.98 g/m*3 8.18 C 11.3 km/h

Legende:
   Min
   Max


Maximal/Minimal-Werte vom 04.06.2020 - 05.06.2020

Sensor Min Max Avg
Temp
(Aussen-T/F)
8.8 °C
05-06-2020  04:55:00
18.4 °C
04-06-2020  00:25:00
13.09 °C
Abs-Feuchte
(Aussen-T/F)
7.97 g/m*3
05-06-2020  04:45:00
13.24 g/m*3
04-06-2020  11:50:00
10.17 g/m*3
Windchill
(Aussen-T/F)
7.41 C
05-06-2020  23:25:00
18.4 C
04-06-2020  00:25:00
12.97 C

Die Daten stammen von einer Davis Vantage Pro 2 Wetter-Station und werden unter Linux mit der Software wview2wettercgi und aufbereitet. Alle Angaben erfolgen ohne Gewähr für ihre Vollständigkeit oder Richtigkeit.
Kontakt: Rainer Krienke krienke@uni-koblenz.de . Meine Webseiten an der Uni Koblenz oder privat.
Version: $Revision: 0.78 $